sensor_id;sensor_type;location;lat;lon;timestamp;P1;durP1;ratioP1;P2;durP2;ratioP2
37895;SDS011;23733;53.254;10.430;2023-05-10T00:00:55;6.73;;;3.10;;
37895;SDS011;23733;53.254;10.430;2023-05-10T00:03:21;7.27;;;3.13;;
37895;SDS011;23733;53.254;10.430;2023-05-10T00:05:47;5.70;;;3.20;;
37895;SDS011;23733;53.254;10.430;2023-05-10T00:08:13;8.30;;;3.30;;
37895;SDS011;23733;53.254;10.430;2023-05-10T00:10:40;5.63;;;3.23;;
37895;SDS011;23733;53.254;10.430;2023-05-10T00:13:06;7.97;;;3.17;;
37895;SDS011;23733;53.254;10.430;2023-05-10T00:15:32;6.20;;;3.57;;
37895;SDS011;23733;53.254;10.430;2023-05-10T00:17:59;8.30;;;3.10;;
37895;SDS011;23733;53.254;10.430;2023-05-10T00:20:26;5.33;;;3.03;;
37895;SDS011;23733;53.254;10.430;2023-05-10T00:22:52;6.30;;;3.00;;
37895;SDS011;23733;53.254;10.430;2023-05-10T00:25:18;4.97;;;3.17;;
37895;SDS011;23733;53.254;10.430;2023-05-10T00:27:47;4.77;;;3.10;;
37895;SDS011;23733;53.254;10.430;2023-05-10T00:30:13;7.03;;;3.37;;
37895;SDS011;23733;53.254;10.430;2023-05-10T00:32:40;6.07;;;3.20;;
37895;SDS011;23733;53.254;10.430;2023-05-10T00:35:06;8.30;;;3.37;;
37895;SDS011;23733;53.254;10.430;2023-05-10T00:37:33;3.77;;;3.03;;
37895;SDS011;23733;53.254;10.430;2023-05-10T00:39:59;6.00;;;2.90;;
37895;SDS011;23733;53.254;10.430;2023-05-10T00:42:25;6.77;;;3.33;;
37895;SDS011;23733;53.254;10.430;2023-05-10T00:44:52;4.87;;;3.30;;
37895;SDS011;23733;53.254;10.430;2023-05-10T00:47:18;4.93;;;2.80;;
37895;SDS011;23733;53.254;10.430;2023-05-10T00:49:44;5.80;;;3.53;;
37895;SDS011;23733;53.254;10.430;2023-05-10T00:52:11;4.77;;;3.07;;
37895;SDS011;23733;53.254;10.430;2023-05-10T00:54:37;7.37;;;3.30;;
37895;SDS011;23733;53.254;10.430;2023-05-10T00:57:04;8.83;;;3.23;;
37895;SDS011;23733;53.254;10.430;2023-05-10T00:59:30;5.80;;;3.20;;
37895;SDS011;23733;53.254;10.430;2023-05-10T01:01:57;5.63;;;3.10;;
37895;SDS011;23733;53.254;10.430;2023-05-10T01:04:23;7.43;;;3.37;;
37895;SDS011;23733;53.254;10.430;2023-05-10T01:06:53;4.30;;;2.97;;
37895;SDS011;23733;53.254;10.430;2023-05-10T01:09:21;6.93;;;2.83;;
37895;SDS011;23733;53.254;10.430;2023-05-10T01:11:47;4.50;;;2.90;;
37895;SDS011;23733;53.254;10.430;2023-05-10T01:14:14;8.97;;;3.40;;
37895;SDS011;23733;53.254;10.430;2023-05-10T01:16:41;7.67;;;3.37;;
37895;SDS011;23733;53.254;10.430;2023-05-10T01:19:11;10.93;;;3.63;;
37895;SDS011;23733;53.254;10.430;2023-05-10T01:21:41;8.87;;;3.40;;
37895;SDS011;23733;53.254;10.430;2023-05-10T01:24:19;4.07;;;3.13;;
37895;SDS011;23733;53.254;10.430;2023-05-10T01:29:36;7.93;;;3.30;;
37895;SDS011;23733;53.254;10.430;2023-05-10T01:34:42;7.67;;;3.10;;
37895;SDS011;23733;53.254;10.430;2023-05-10T01:37:12;6.13;;;3.40;;
37895;SDS011;23733;53.254;10.430;2023-05-10T01:39:43;6.27;;;3.17;;
37895;SDS011;23733;53.254;10.430;2023-05-10T01:42:11;8.67;;;3.47;;
37895;SDS011;23733;53.254;10.430;2023-05-10T01:44:42;8.93;;;3.57;;
37895;SDS011;23733;53.254;10.430;2023-05-10T01:47:11;5.47;;;3.30;;
37895;SDS011;23733;53.254;10.430;2023-05-10T01:49:49;7.07;;;3.57;;
37895;SDS011;23733;53.254;10.430;2023-05-10T01:52:19;9.53;;;3.40;;
37895;SDS011;23733;53.254;10.430;2023-05-10T01:54:49;4.83;;;3.37;;
37895;SDS011;23733;53.254;10.430;2023-05-10T01:57:19;4.73;;;3.13;;
37895;SDS011;23733;53.254;10.430;2023-05-10T01:59:46;8.53;;;3.40;;
37895;SDS011;23733;53.254;10.430;2023-05-10T02:02:15;5.53;;;3.17;;
37895;SDS011;23733;53.254;10.430;2023-05-10T02:04:46;7.20;;;3.17;;
37895;SDS011;23733;53.254;10.430;2023-05-10T02:07:13;3.30;;;2.90;;
37895;SDS011;23733;53.254;10.430;2023-05-10T02:09:44;6.33;;;3.30;;
37895;SDS011;23733;53.254;10.430;2023-05-10T02:12:13;7.90;;;3.30;;
37895;SDS011;23733;53.254;10.430;2023-05-10T02:14:40;7.13;;;3.50;;
37895;SDS011;23733;53.254;10.430;2023-05-10T02:17:10;7.53;;;3.30;;
37895;SDS011;23733;53.254;10.430;2023-05-10T02:19:38;6.90;;;3.40;;
37895;SDS011;23733;53.254;10.430;2023-05-10T02:22:04;5.43;;;3.37;;
37895;SDS011;23733;53.254;10.430;2023-05-10T02:24:34;6.80;;;3.30;;
37895;SDS011;23733;53.254;10.430;2023-05-10T02:27:01;5.00;;;3.30;;
37895;SDS011;23733;53.254;10.430;2023-05-10T02:29:35;7.20;;;3.20;;
37895;SDS011;23733;53.254;10.430;2023-05-10T02:32:02;6.93;;;3.53;;
37895;SDS011;23733;53.254;10.430;2023-05-10T02:34:32;6.53;;;3.77;;
37895;SDS011;23733;53.254;10.430;2023-05-10T02:37:10;4.80;;;3.33;;
37895;SDS011;23733;53.254;10.430;2023-05-10T02:39:42;6.50;;;3.27;;
37895;SDS011;23733;53.254;10.430;2023-05-10T02:42:31;5.13;;;3.30;;
37895;SDS011;23733;53.254;10.430;2023-05-10T02:45:01;5.03;;;3.80;;
37895;SDS011;23733;53.254;10.430;2023-05-10T02:47:51;6.33;;;3.37;;
37895;SDS011;23733;53.254;10.430;2023-05-10T02:50:21;4.77;;;3.50;;
37895;SDS011;23733;53.254;10.430;2023-05-10T02:55:21;6.47;;;3.40;;
37895;SDS011;23733;53.254;10.430;2023-05-10T02:57:52;6.00;;;3.50;;
37895;SDS011;23733;53.254;10.430;2023-05-10T03:00:24;6.23;;;3.60;;
37895;SDS011;23733;53.254;10.430;2023-05-10T03:02:50;10.97;;;3.30;;
37895;SDS011;23733;53.254;10.430;2023-05-10T03:05:16;6.13;;;3.63;;
37895;SDS011;23733;53.254;10.430;2023-05-10T03:07:46;9.83;;;3.90;;
37895;SDS011;23733;53.254;10.430;2023-05-10T03:10:12;7.13;;;3.53;;
37895;SDS011;23733;53.254;10.430;2023-05-10T03:13:12;4.93;;;3.50;;
37895;SDS011;23733;53.254;10.430;2023-05-10T03:15:59;7.50;;;3.60;;
37895;SDS011;23733;53.254;10.430;2023-05-10T03:18:50;6.03;;;3.63;;
37895;SDS011;23733;53.254;10.430;2023-05-10T03:21:29;5.83;;;4.07;;
37895;SDS011;23733;53.254;10.430;2023-05-10T03:24:06;7.47;;;3.50;;
37895;SDS011;23733;53.254;10.430;2023-05-10T03:26:37;4.77;;;3.20;;
37895;SDS011;23733;53.254;10.430;2023-05-10T03:29:06;4.57;;;3.43;;
37895;SDS011;23733;53.254;10.430;2023-05-10T03:31:38;6.30;;;3.73;;
37895;SDS011;23733;53.254;10.430;2023-05-10T03:34:10;4.70;;;3.40;;
37895;SDS011;23733;53.254;10.430;2023-05-10T03:36:39;6.57;;;3.30;;
37895;SDS011;23733;53.254;10.430;2023-05-10T03:39:14;6.13;;;3.30;;
37895;SDS011;23733;53.254;10.430;2023-05-10T03:41:45;6.33;;;3.47;;
37895;SDS011;23733;53.254;10.430;2023-05-10T03:44:25;5.63;;;3.70;;
37895;SDS011;23733;53.254;10.430;2023-05-10T03:46:53;7.57;;;3.67;;
37895;SDS011;23733;53.254;10.430;2023-05-10T03:49:25;6.53;;;3.53;;
37895;SDS011;23733;53.254;10.430;2023-05-10T03:51:59;7.07;;;4.00;;
37895;SDS011;23733;53.254;10.430;2023-05-10T03:54:25;5.20;;;3.53;;
37895;SDS011;23733;53.254;10.430;2023-05-10T03:56:51;6.67;;;3.50;;
37895;SDS011;23733;53.254;10.430;2023-05-10T04:03:07;5.93;;;3.37;;
37895;SDS011;23733;53.254;10.430;2023-05-10T04:05:38;5.57;;;3.57;;
37895;SDS011;23733;53.254;10.430;2023-05-10T04:08:07;6.73;;;3.33;;
37895;SDS011;23733;53.254;10.430;2023-05-10T04:10:42;5.43;;;3.10;;
37895;SDS011;23733;53.254;10.430;2023-05-10T04:16:09;5.87;;;3.30;;
37895;SDS011;23733;53.254;10.430;2023-05-10T04:18:35;6.60;;;3.60;;
37895;SDS011;23733;53.254;10.430;2023-05-10T04:21:11;5.47;;;3.63;;
37895;SDS011;23733;53.254;10.430;2023-05-10T04:23:39;4.97;;;3.40;;
37895;SDS011;23733;53.254;10.430;2023-05-10T04:26:31;7.63;;;3.60;;
37895;SDS011;23733;53.254;10.430;2023-05-10T04:28:59;5.80;;;3.43;;
37895;SDS011;23733;53.254;10.430;2023-05-10T04:31:31;5.37;;;3.47;;
37895;SDS011;23733;53.254;10.430;2023-05-10T04:34:01;6.67;;;3.50;;
37895;SDS011;23733;53.254;10.430;2023-05-10T04:36:27;4.23;;;3.10;;
37895;SDS011;23733;53.254;10.430;2023-05-10T04:38:59;8.13;;;3.33;;
37895;SDS011;23733;53.254;10.430;2023-05-10T04:41:35;8.23;;;3.70;;
37895;SDS011;23733;53.254;10.430;2023-05-10T04:44:19;6.77;;;3.73;;
37895;SDS011;23733;53.254;10.430;2023-05-10T04:46:50;8.70;;;3.70;;
37895;SDS011;23733;53.254;10.430;2023-05-10T04:49:53;4.67;;;3.60;;
37895;SDS011;23733;53.254;10.430;2023-05-10T04:52:27;6.77;;;3.73;;
37895;SDS011;23733;53.254;10.430;2023-05-10T04:55:14;5.10;;;3.40;;
37895;SDS011;23733;53.254;10.430;2023-05-10T04:57:50;4.47;;;3.40;;
37895;SDS011;23733;53.254;10.430;2023-05-10T05:00:43;5.57;;;3.80;;
37895;SDS011;23733;53.254;10.430;2023-05-10T05:05:45;6.67;;;3.40;;
37895;SDS011;23733;53.254;10.430;2023-05-10T05:08:11;6.80;;;3.73;;
37895;SDS011;23733;53.254;10.430;2023-05-10T05:10:38;9.03;;;3.60;;
37895;SDS011;23733;53.254;10.430;2023-05-10T05:13:04;4.40;;;3.40;;
37895;SDS011;23733;53.254;10.430;2023-05-10T05:15:30;5.20;;;3.33;;
37895;SDS011;23733;53.254;10.430;2023-05-10T05:17:57;8.30;;;3.57;;
37895;SDS011;23733;53.254;10.430;2023-05-10T05:20:23;6.43;;;3.80;;
37895;SDS011;23733;53.254;10.430;2023-05-10T05:22:49;7.03;;;4.00;;
37895;SDS011;23733;53.254;10.430;2023-05-10T05:25:15;8.57;;;3.13;;
37895;SDS011;23733;53.254;10.430;2023-05-10T05:27:41;5.20;;;3.60;;
37895;SDS011;23733;53.254;10.430;2023-05-10T05:30:08;5.43;;;3.70;;
37895;SDS011;23733;53.254;10.430;2023-05-10T05:32:34;4.27;;;3.40;;
37895;SDS011;23733;53.254;10.430;2023-05-10T05:35:00;5.00;;;3.67;;
37895;SDS011;23733;53.254;10.430;2023-05-10T05:37:26;6.07;;;3.50;;
37895;SDS011;23733;53.254;10.430;2023-05-10T05:39:52;5.83;;;3.13;;
37895;SDS011;23733;53.254;10.430;2023-05-10T05:42:20;5.43;;;3.83;;
37895;SDS011;23733;53.254;10.430;2023-05-10T05:44:46;4.97;;;3.50;;
37895;SDS011;23733;53.254;10.430;2023-05-10T05:47:12;5.07;;;3.30;;
37895;SDS011;23733;53.254;10.430;2023-05-10T05:49:38;3.83;;;3.43;;
37895;SDS011;23733;53.254;10.430;2023-05-10T05:52:04;6.33;;;3.27;;
37895;SDS011;23733;53.254;10.430;2023-05-10T05:54:30;7.17;;;3.67;;
37895;SDS011;23733;53.254;10.430;2023-05-10T05:56:57;8.67;;;3.83;;
37895;SDS011;23733;53.254;10.430;2023-05-10T05:59:23;4.77;;;3.40;;
37895;SDS011;23733;53.254;10.430;2023-05-10T06:01:50;4.67;;;3.40;;
37895;SDS011;23733;53.254;10.430;2023-05-10T06:04:16;6.73;;;3.50;;
37895;SDS011;23733;53.254;10.430;2023-05-10T06:06:42;5.33;;;3.30;;
37895;SDS011;23733;53.254;10.430;2023-05-10T06:09:09;7.40;;;3.70;;
37895;SDS011;23733;53.254;10.430;2023-05-10T06:11:36;6.73;;;3.67;;
37895;SDS011;23733;53.254;10.430;2023-05-10T06:14:02;5.93;;;3.30;;
37895;SDS011;23733;53.254;10.430;2023-05-10T06:16:33;6.10;;;3.60;;
37895;SDS011;23733;53.254;10.430;2023-05-10T06:19:00;3.70;;;3.00;;
37895;SDS011;23733;53.254;10.430;2023-05-10T06:21:26;7.00;;;3.37;;
37895;SDS011;23733;53.254;10.430;2023-05-10T06:23:52;5.37;;;3.57;;
37895;SDS011;23733;53.254;10.430;2023-05-10T06:26:18;4.47;;;3.13;;
37895;SDS011;23733;53.254;10.430;2023-05-10T06:28:44;4.97;;;3.47;;
37895;SDS011;23733;53.254;10.430;2023-05-10T06:31:10;6.87;;;3.63;;
37895;SDS011;23733;53.254;10.430;2023-05-10T06:33:37;7.10;;;3.50;;
37895;SDS011;23733;53.254;10.430;2023-05-10T06:36:03;5.87;;;3.47;;
37895;SDS011;23733;53.254;10.430;2023-05-10T06:38:29;5.77;;;3.57;;
37895;SDS011;23733;53.254;10.430;2023-05-10T06:40:56;5.53;;;3.33;;
37895;SDS011;23733;53.254;10.430;2023-05-10T06:43:22;5.83;;;3.40;;
37895;SDS011;23733;53.254;10.430;2023-05-10T06:45:50;6.40;;;3.67;;
37895;SDS011;23733;53.254;10.430;2023-05-10T06:48:16;4.73;;;3.57;;
37895;SDS011;23733;53.254;10.430;2023-05-10T06:50:42;4.47;;;3.10;;
37895;SDS011;23733;53.254;10.430;2023-05-10T06:53:08;4.73;;;3.40;;
37895;SDS011;23733;53.254;10.430;2023-05-10T06:55:34;6.43;;;3.80;;
37895;SDS011;23733;53.254;10.430;2023-05-10T06:58:00;4.53;;;3.40;;
37895;SDS011;23733;53.254;10.430;2023-05-10T07:00:27;4.57;;;3.50;;
37895;SDS011;23733;53.254;10.430;2023-05-10T07:02:53;8.37;;;3.73;;
37895;SDS011;23733;53.254;10.430;2023-05-10T07:05:19;5.30;;;3.37;;
37895;SDS011;23733;53.254;10.430;2023-05-10T07:07:45;5.80;;;3.43;;
37895;SDS011;23733;53.254;10.430;2023-05-10T07:10:11;5.80;;;3.07;;
37895;SDS011;23733;53.254;10.430;2023-05-10T07:12:37;12.10;;;4.17;;
37895;SDS011;23733;53.254;10.430;2023-05-10T07:15:03;5.47;;;3.40;;
37895;SDS011;23733;53.254;10.430;2023-05-10T07:17:30;6.80;;;3.50;;
37895;SDS011;23733;53.254;10.430;2023-05-10T07:19:56;4.87;;;2.97;;
37895;SDS011;23733;53.254;10.430;2023-05-10T07:22:22;4.17;;;3.23;;
37895;SDS011;23733;53.254;10.430;2023-05-10T07:24:48;3.60;;;2.90;;
37895;SDS011;23733;53.254;10.430;2023-05-10T07:27:14;4.13;;;2.93;;
37895;SDS011;23733;53.254;10.430;2023-05-10T07:29:40;8.30;;;3.17;;
37895;SDS011;23733;53.254;10.430;2023-05-10T07:32:06;5.10;;;3.30;;
37895;SDS011;23733;53.254;10.430;2023-05-10T07:34:32;8.57;;;3.50;;
37895;SDS011;23733;53.254;10.430;2023-05-10T07:36:58;4.67;;;3.50;;
37895;SDS011;23733;53.254;10.430;2023-05-10T07:39:25;6.40;;;3.07;;
37895;SDS011;23733;53.254;10.430;2023-05-10T07:41:52;4.33;;;3.20;;
37895;SDS011;23733;53.254;10.430;2023-05-10T07:44:18;7.10;;;3.30;;
37895;SDS011;23733;53.254;10.430;2023-05-10T07:46:45;4.73;;;3.00;;
37895;SDS011;23733;53.254;10.430;2023-05-10T07:49:13;7.00;;;3.47;;
37895;SDS011;23733;53.254;10.430;2023-05-10T07:51:39;5.47;;;3.27;;
37895;SDS011;23733;53.254;10.430;2023-05-10T07:54:05;8.00;;;3.70;;
37895;SDS011;23733;53.254;10.430;2023-05-10T07:56:31;5.70;;;3.30;;
37895;SDS011;23733;53.254;10.430;2023-05-10T07:58:58;6.90;;;3.13;;
37895;SDS011;23733;53.254;10.430;2023-05-10T08:01:25;5.97;;;3.40;;
37895;SDS011;23733;53.254;10.430;2023-05-10T08:03:52;8.03;;;2.90;;
37895;SDS011;23733;53.254;10.430;2023-05-10T08:06:19;4.03;;;3.07;;
37895;SDS011;23733;53.254;10.430;2023-05-10T08:08:45;4.17;;;3.07;;
37895;SDS011;23733;53.254;10.430;2023-05-10T08:11:15;6.33;;;3.37;;
37895;SDS011;23733;53.254;10.430;2023-05-10T08:13:42;5.50;;;3.40;;
37895;SDS011;23733;53.254;10.430;2023-05-10T08:16:08;6.67;;;3.47;;
37895;SDS011;23733;53.254;10.430;2023-05-10T08:18:34;4.23;;;3.50;;
37895;SDS011;23733;53.254;10.430;2023-05-10T08:21:00;7.13;;;3.37;;
37895;SDS011;23733;53.254;10.430;2023-05-10T08:23:26;4.67;;;3.43;;
37895;SDS011;23733;53.254;10.430;2023-05-10T08:25:52;9.73;;;3.50;;
37895;SDS011;23733;53.254;10.430;2023-05-10T08:28:18;6.80;;;3.23;;
37895;SDS011;23733;53.254;10.430;2023-05-10T08:30:44;3.83;;;3.17;;
37895;SDS011;23733;53.254;10.430;2023-05-10T08:33:10;11.27;;;3.63;;
37895;SDS011;23733;53.254;10.430;2023-05-10T08:35:36;6.00;;;3.37;;
37895;SDS011;23733;53.254;10.430;2023-05-10T08:38:02;5.43;;;3.43;;
37895;SDS011;23733;53.254;10.430;2023-05-10T08:40:28;5.07;;;3.57;;
37895;SDS011;23733;53.254;10.430;2023-05-10T08:42:55;5.73;;;3.70;;
37895;SDS011;23733;53.254;10.430;2023-05-10T08:45:30;8.33;;;3.47;;
37895;SDS011;23733;53.254;10.430;2023-05-10T08:47:59;5.27;;;3.30;;
37895;SDS011;23733;53.254;10.430;2023-05-10T08:50:27;5.23;;;3.50;;
37895;SDS011;23733;53.254;10.430;2023-05-10T08:52:55;5.53;;;3.67;;
37895;SDS011;23733;53.254;10.430;2023-05-10T08:55:25;5.47;;;3.60;;
37895;SDS011;23733;53.254;10.430;2023-05-10T08:57:51;6.10;;;3.37;;
37895;SDS011;23733;53.254;10.430;2023-05-10T09:00:18;6.57;;;3.60;;
37895;SDS011;23733;53.254;10.430;2023-05-10T09:02:44;8.07;;;3.97;;
37895;SDS011;23733;53.254;10.430;2023-05-10T09:05:11;5.72;;;3.55;;
37895;SDS011;23733;53.254;10.430;2023-05-10T09:07:37;5.33;;;3.47;;
37895;SDS011;23733;53.254;10.430;2023-05-10T09:10:04;5.77;;;3.77;;
37895;SDS011;23733;53.254;10.430;2023-05-10T09:12:30;6.00;;;3.70;;
37895;SDS011;23733;53.254;10.430;2023-05-10T09:14:57;8.90;;;3.60;;
37895;SDS011;23733;53.254;10.430;2023-05-10T09:17:24;9.73;;;3.80;;
37895;SDS011;23733;53.254;10.430;2023-05-10T09:19:57;5.70;;;3.83;;
37895;SDS011;23733;53.254;10.430;2023-05-10T09:22:23;7.33;;;3.60;;
37895;SDS011;23733;53.254;10.430;2023-05-10T09:25:03;7.37;;;3.80;;
37895;SDS011;23733;53.254;10.430;2023-05-10T09:27:29;8.70;;;3.83;;
37895;SDS011;23733;53.254;10.430;2023-05-10T09:29:55;5.33;;;3.80;;
37895;SDS011;23733;53.254;10.430;2023-05-10T09:32:35;6.00;;;3.73;;
37895;SDS011;23733;53.254;10.430;2023-05-10T09:37:41;6.87;;;3.70;;
37895;SDS011;23733;53.254;10.430;2023-05-10T09:40:08;7.57;;;4.23;;
37895;SDS011;23733;53.254;10.430;2023-05-10T09:42:37;6.73;;;4.17;;
37895;SDS011;23733;53.254;10.430;2023-05-10T09:45:04;15.33;;;4.23;;
37895;SDS011;23733;53.254;10.430;2023-05-10T09:47:34;6.73;;;3.60;;
37895;SDS011;23733;53.254;10.430;2023-05-10T09:50:01;8.13;;;4.03;;
37895;SDS011;23733;53.254;10.430;2023-05-10T09:52:30;8.10;;;4.17;;
37895;SDS011;23733;53.254;10.430;2023-05-10T09:55:10;6.43;;;3.63;;
37895;SDS011;23733;53.254;10.430;2023-05-10T09:57:36;6.63;;;4.03;;
37895;SDS011;23733;53.254;10.430;2023-05-10T10:00:03;6.10;;;3.70;;
37895;SDS011;23733;53.254;10.430;2023-05-10T10:02:30;7.83;;;4.10;;
37895;SDS011;23733;53.254;10.430;2023-05-10T10:04:56;8.43;;;3.83;;
37895;SDS011;23733;53.254;10.430;2023-05-10T10:07:23;6.50;;;3.90;;
37895;SDS011;23733;53.254;10.430;2023-05-10T10:09:50;11.00;;;4.33;;
37895;SDS011;23733;53.254;10.430;2023-05-10T10:12:17;7.20;;;4.33;;
37895;SDS011;23733;53.254;10.430;2023-05-10T10:14:45;6.87;;;4.43;;
37895;SDS011;23733;53.254;10.430;2023-05-10T10:17:11;9.70;;;4.60;;
37895;SDS011;23733;53.254;10.430;2023-05-10T10:19:38;6.90;;;4.47;;
37895;SDS011;23733;53.254;10.430;2023-05-10T10:22:04;9.00;;;4.60;;
37895;SDS011;23733;53.254;10.430;2023-05-10T10:24:31;9.47;;;4.00;;
37895;SDS011;23733;53.254;10.430;2023-05-10T10:27:04;11.40;;;4.63;;
37895;SDS011;23733;53.254;10.430;2023-05-10T10:29:39;6.47;;;4.30;;
37895;SDS011;23733;53.254;10.430;2023-05-10T10:32:10;8.83;;;4.57;;
37895;SDS011;23733;53.254;10.430;2023-05-10T10:34:38;7.57;;;5.30;;
37895;SDS011;23733;53.254;10.430;2023-05-10T10:37:05;6.60;;;4.57;;
37895;SDS011;23733;53.254;10.430;2023-05-10T10:39:31;5.93;;;4.63;;
37895;SDS011;23733;53.254;10.430;2023-05-10T10:41:58;5.90;;;4.27;;
37895;SDS011;23733;53.254;10.430;2023-05-10T11:00:20;7.07;;;5.20;;
37895;SDS011;23733;53.254;10.430;2023-05-10T11:02:49;7.10;;;5.30;;
37895;SDS011;23733;53.254;10.430;2023-05-10T11:05:23;6.80;;;5.40;;
37895;SDS011;23733;53.254;10.430;2023-05-10T11:07:53;6.90;;;5.40;;
37895;SDS011;23733;53.254;10.430;2023-05-10T11:10:24;8.70;;;5.30;;
37895;SDS011;23733;53.254;10.430;2023-05-10T11:12:51;8.10;;;5.10;;
37895;SDS011;23733;53.254;10.430;2023-05-10T11:15:31;8.33;;;5.50;;
37895;SDS011;23733;53.254;10.430;2023-05-10T11:17:58;5.87;;;4.87;;
37895;SDS011;23733;53.254;10.430;2023-05-10T11:20:27;6.27;;;4.83;;
37895;SDS011;23733;53.254;10.430;2023-05-10T11:23:10;7.17;;;5.00;;
37895;SDS011;23733;53.254;10.430;2023-05-10T11:25:41;5.27;;;4.50;;
37895;SDS011;23733;53.254;10.430;2023-05-10T11:28:09;5.30;;;4.80;;
37895;SDS011;23733;53.254;10.430;2023-05-10T11:30:36;6.13;;;5.13;;
37895;SDS011;23733;53.254;10.430;2023-05-10T11:33:04;6.10;;;4.60;;
37895;SDS011;23733;53.254;10.430;2023-05-10T11:35:30;7.57;;;4.80;;
37895;SDS011;23733;53.254;10.430;2023-05-10T11:37:57;5.67;;;4.87;;
37895;SDS011;23733;53.254;10.430;2023-05-10T11:40:23;5.23;;;4.43;;
37895;SDS011;23733;53.254;10.430;2023-05-10T11:42:55;5.10;;;4.50;;
37895;SDS011;23733;53.254;10.430;2023-05-10T11:45:23;7.00;;;4.97;;
37895;SDS011;23733;53.254;10.430;2023-05-10T11:47:49;6.73;;;5.10;;
37895;SDS011;23733;53.254;10.430;2023-05-10T11:50:16;5.27;;;4.77;;
37895;SDS011;23733;53.254;10.430;2023-05-10T11:52:43;6.63;;;5.00;;
37895;SDS011;23733;53.254;10.430;2023-05-10T11:55:09;5.87;;;4.77;;
37895;SDS011;23733;53.254;10.430;2023-05-10T11:57:35;6.70;;;5.20;;
37895;SDS011;23733;53.254;10.430;2023-05-10T12:00:03;6.57;;;5.30;;
37895;SDS011;23733;53.254;10.430;2023-05-10T12:02:30;6.93;;;5.43;;
37895;SDS011;23733;53.254;10.430;2023-05-10T12:04:56;6.80;;;5.47;;
37895;SDS011;23733;53.254;10.430;2023-05-10T12:07:23;6.10;;;5.40;;
37895;SDS011;23733;53.254;10.430;2023-05-10T12:10:25;6.87;;;5.50;;
37895;SDS011;23733;53.254;10.430;2023-05-10T12:12:43;8.17;;;6.40;;
37895;SDS011;23733;53.254;10.430;2023-05-10T12:15:11;7.43;;;5.57;;
37895;SDS011;23733;53.254;10.430;2023-05-10T12:17:38;7.47;;;5.43;;
37895;SDS011;23733;53.254;10.430;2023-05-10T12:22:43;7.23;;;5.63;;
37895;SDS011;23733;53.254;10.430;2023-05-10T12:25:10;8.13;;;6.23;;
37895;SDS011;23733;53.254;10.430;2023-05-10T12:27:36;5.83;;;5.23;;
37895;SDS011;23733;53.254;10.430;2023-05-10T12:30:03;6.83;;;5.43;;
37895;SDS011;23733;53.254;10.430;2023-05-10T12:32:39;8.37;;;5.20;;
37895;SDS011;23733;53.254;10.430;2023-05-10T12:35:06;7.07;;;5.97;;
37895;SDS011;23733;53.254;10.430;2023-05-10T12:37:32;6.47;;;5.20;;
37895;SDS011;23733;53.254;10.430;2023-05-10T12:40:05;6.53;;;5.40;;
37895;SDS011;23733;53.254;10.430;2023-05-10T12:42:32;6.53;;;5.40;;
37895;SDS011;23733;53.254;10.430;2023-05-10T12:44:58;6.67;;;5.17;;
37895;SDS011;23733;53.254;10.430;2023-05-10T12:47:24;6.80;;;6.00;;
37895;SDS011;23733;53.254;10.430;2023-05-10T12:49:51;6.60;;;5.47;;
37895;SDS011;23733;53.254;10.430;2023-05-10T12:52:17;5.57;;;4.80;;
37895;SDS011;23733;53.254;10.430;2023-05-10T12:54:43;6.93;;;5.63;;
37895;SDS011;23733;53.254;10.430;2023-05-10T12:57:09;7.00;;;5.30;;
37895;SDS011;23733;53.254;10.430;2023-05-10T12:59:36;6.13;;;5.40;;
37895;SDS011;23733;53.254;10.430;2023-05-10T13:02:02;6.80;;;5.50;;
37895;SDS011;23733;53.254;10.430;2023-05-10T13:04:28;7.20;;;5.73;;
37895;SDS011;23733;53.254;10.430;2023-05-10T13:06:55;7.43;;;5.33;;
37895;SDS011;23733;53.254;10.430;2023-05-10T13:09:24;6.20;;;5.43;;
37895;SDS011;23733;53.254;10.430;2023-05-10T13:11:51;6.80;;;5.57;;
37895;SDS011;23733;53.254;10.430;2023-05-10T13:14:19;5.57;;;4.73;;
37895;SDS011;23733;53.254;10.430;2023-05-10T13:16:46;6.67;;;5.10;;
37895;SDS011;23733;53.254;10.430;2023-05-10T13:19:13;6.13;;;4.97;;
37895;SDS011;23733;53.254;10.430;2023-05-10T13:21:39;5.67;;;4.03;;
37895;SDS011;23733;53.254;10.430;2023-05-10T13:24:09;6.13;;;3.90;;
37895;SDS011;23733;53.254;10.430;2023-05-10T13:26:36;5.03;;;3.97;;
37895;SDS011;23733;53.254;10.430;2023-05-10T13:29:02;4.93;;;4.13;;
37895;SDS011;23733;53.254;10.430;2023-05-10T13:31:29;4.33;;;3.93;;
37895;SDS011;23733;53.254;10.430;2023-05-10T13:33:55;5.60;;;3.90;;
37895;SDS011;23733;53.254;10.430;2023-05-10T13:36:21;4.30;;;3.90;;
37895;SDS011;23733;53.254;10.430;2023-05-10T13:38:48;4.43;;;3.90;;
37895;SDS011;23733;53.254;10.430;2023-05-10T13:41:14;3.87;;;3.47;;
37895;SDS011;23733;53.254;10.430;2023-05-10T13:43:40;4.73;;;3.70;;
37895;SDS011;23733;53.254;10.430;2023-05-10T13:46:06;4.00;;;3.60;;
37895;SDS011;23733;53.254;10.430;2023-05-10T13:48:32;5.43;;;3.73;;
37895;SDS011;23733;53.254;10.430;2023-05-10T13:50:58;5.97;;;3.50;;
37895;SDS011;23733;53.254;10.430;2023-05-10T13:53:24;3.87;;;3.47;;
37895;SDS011;23733;53.254;10.430;2023-05-10T13:55:50;4.53;;;4.03;;
37895;SDS011;23733;53.254;10.430;2023-05-10T13:58:16;4.07;;;3.50;;
37895;SDS011;23733;53.254;10.430;2023-05-10T14:00:42;4.13;;;3.43;;
37895;SDS011;23733;53.254;10.430;2023-05-10T14:03:09;3.43;;;2.77;;
37895;SDS011;23733;53.254;10.430;2023-05-10T14:05:36;6.10;;;3.20;;
37895;SDS011;23733;53.254;10.430;2023-05-10T14:08:02;4.93;;;3.23;;
37895;SDS011;23733;53.254;10.430;2023-05-10T14:10:29;4.60;;;3.70;;
37895;SDS011;23733;53.254;10.430;2023-05-10T14:12:55;3.50;;;3.20;;
37895;SDS011;23733;53.254;10.430;2023-05-10T14:15:22;3.93;;;3.30;;
37895;SDS011;23733;53.254;10.430;2023-05-10T14:17:48;3.77;;;3.37;;
37895;SDS011;23733;53.254;10.430;2023-05-10T14:20:14;4.00;;;3.30;;
37895;SDS011;23733;53.254;10.430;2023-05-10T14:22:41;4.20;;;3.03;;
37895;SDS011;23733;53.254;10.430;2023-05-10T14:25:07;3.20;;;2.80;;
37895;SDS011;23733;53.254;10.430;2023-05-10T14:27:33;3.57;;;2.70;;
37895;SDS011;23733;53.254;10.430;2023-05-10T14:30:00;5.73;;;2.50;;
37895;SDS011;23733;53.254;10.430;2023-05-10T14:32:26;2.60;;;2.40;;
37895;SDS011;23733;53.254;10.430;2023-05-10T14:34:53;3.00;;;2.70;;
37895;SDS011;23733;53.254;10.430;2023-05-10T14:37:19;3.70;;;2.93;;
37895;SDS011;23733;53.254;10.430;2023-05-10T14:39:46;2.70;;;2.50;;
37895;SDS011;23733;53.254;10.430;2023-05-10T14:42:12;2.40;;;2.20;;
37895;SDS011;23733;53.254;10.430;2023-05-10T14:44:39;4.33;;;2.80;;
37895;SDS011;23733;53.254;10.430;2023-05-10T14:47:05;3.27;;;2.63;;
37895;SDS011;23733;53.254;10.430;2023-05-10T14:49:31;2.90;;;2.60;;
37895;SDS011;23733;53.254;10.430;2023-05-10T14:51:57;2.83;;;2.57;;
37895;SDS011;23733;53.254;10.430;2023-05-10T14:54:24;3.47;;;2.40;;
37895;SDS011;23733;53.254;10.430;2023-05-10T14:56:50;4.10;;;1.90;;
37895;SDS011;23733;53.254;10.430;2023-05-10T14:59:16;2.67;;;2.47;;
37895;SDS011;23733;53.254;10.430;2023-05-10T15:01:43;3.30;;;2.50;;
37895;SDS011;23733;53.254;10.430;2023-05-10T15:04:09;3.27;;;2.20;;
37895;SDS011;23733;53.254;10.430;2023-05-10T15:06:35;3.87;;;2.60;;
37895;SDS011;23733;53.254;10.430;2023-05-10T15:09:02;2.23;;;2.03;;
37895;SDS011;23733;53.254;10.430;2023-05-10T15:11:28;2.83;;;2.50;;
37895;SDS011;23733;53.254;10.430;2023-05-10T15:13:55;3.63;;;2.13;;
37895;SDS011;23733;53.254;10.430;2023-05-10T15:16:21;2.10;;;1.90;;
37895;SDS011;23733;53.254;10.430;2023-05-10T15:18:47;2.53;;;2.27;;